createdAt,value
2022-09-07T00:01:51.750Z,16.74
2022-09-07T00:04:21.570Z,16.73
2022-09-07T00:06:48.277Z,16.72
2022-09-07T00:09:14.956Z,16.71
2022-09-07T00:11:41.576Z,16.73
2022-09-07T00:14:08.482Z,16.75
2022-09-07T00:16:35.232Z,16.75
2022-09-07T00:19:03.011Z,16.77
2022-09-07T00:21:30.280Z,16.78
2022-09-07T00:23:56.922Z,16.81
2022-09-07T00:26:28.124Z,16.85
2022-09-07T00:28:59.301Z,16.87
2022-09-07T00:31:26.860Z,16.87
2022-09-07T00:34:01.846Z,16.88
2022-09-07T00:36:29.229Z,16.88
2022-09-07T00:38:56.045Z,16.87
2022-09-07T00:41:22.871Z,16.84
2022-09-07T00:43:51.808Z,16.82
2022-09-07T00:46:23.148Z,16.80
2022-09-07T00:49:12.334Z,16.76
2022-09-07T00:51:45.071Z,16.71
2022-09-07T00:54:14.711Z,16.66
2022-09-07T00:56:46.059Z,16.61
2022-09-07T00:59:19.656Z,16.57
2022-09-07T01:02:15.267Z,16.52
2022-09-07T01:08:06.833Z,16.45
2022-09-07T01:10:46.151Z,16.43
2022-09-07T01:13:18.331Z,16.42
2022-09-07T01:16:14.707Z,16.42
2022-09-07T01:38:59.609Z,15.89
2022-09-07T01:52:10.022Z,15.89
2022-09-07T01:55:02.040Z,15.87
2022-09-07T01:57:52.335Z,15.87
2022-09-07T02:07:51.562Z,16.04
2022-09-07T02:10:03.877Z,16.09
2022-09-07T02:12:38.689Z,16.14
2022-09-07T02:18:30.635Z,16.22
2022-09-07T02:21:41.691Z,16.25
2022-09-07T02:24:16.877Z,16.29
2022-09-07T02:26:47.071Z,16.31
2022-09-07T02:29:13.959Z,16.30
2022-09-07T02:31:51.997Z,16.24
2022-09-07T02:37:45.836Z,16.25
2022-09-07T02:40:19.205Z,16.24
2022-09-07T02:42:48.025Z,16.25
2022-09-07T02:45:15.619Z,16.28
2022-09-07T02:47:54.459Z,16.34
2022-09-07T02:50:36.236Z,16.36
2022-09-07T02:53:12.245Z,16.40
2022-09-07T02:55:46.529Z,16.45
2022-09-07T02:58:33.805Z,16.48
2022-09-07T03:01:08.405Z,16.52
2022-09-07T03:03:36.587Z,16.57
2022-09-07T03:06:09.308Z,16.60
2022-09-07T03:08:42.443Z,16.61
2022-09-07T03:11:09.641Z,16.63
2022-09-07T03:13:36.275Z,16.62
2022-09-07T03:16:03.344Z,16.59
2022-09-07T03:18:33.209Z,16.52
2022-09-07T03:20:59.777Z,16.46
2022-09-07T03:23:26.231Z,16.43
2022-09-07T03:25:52.906Z,16.38
2022-09-07T03:28:19.572Z,16.36
2022-09-07T03:30:49.142Z,16.34
2022-09-07T03:33:16.335Z,16.34
2022-09-07T03:35:43.678Z,16.37
2022-09-07T03:38:27.415Z,16.40
2022-09-07T03:41:13.282Z,16.36
2022-09-07T03:43:42.418Z,16.38
2022-09-07T03:46:10.145Z,16.42
2022-09-07T03:48:42.643Z,16.46
2022-09-07T03:51:11.001Z,16.45
2022-09-07T03:53:58.531Z,16.39
2022-09-07T03:56:32.865Z,16.32
2022-09-07T03:59:03.098Z,16.22
2022-09-07T04:01:49.807Z,16.13
2022-09-07T04:04:36.403Z,16.04
2022-09-07T04:07:06.306Z,15.99
2022-09-07T04:09:33.402Z,15.96
2022-09-07T04:12:03.655Z,15.93
2022-09-07T04:14:33.679Z,15.91
2022-09-07T04:17:03.578Z,15.90
2022-09-07T04:20:09.317Z,15.89
2022-09-07T04:22:37.888Z,15.87
2022-09-07T04:25:06.511Z,15.87
2022-09-07T04:27:33.349Z,15.88
2022-09-07T04:30:21.051Z,15.90
2022-09-07T04:33:15.251Z,15.91
2022-09-07T04:35:45.394Z,15.94
2022-09-07T04:38:15.586Z,15.96
2022-09-07T04:40:42.730Z,15.96
2022-09-07T04:43:12.592Z,15.96
2022-09-07T04:45:46.834Z,15.98
2022-09-07T04:49:03.716Z,16.01
2022-09-07T04:51:36.182Z,16.01
2022-09-07T04:54:11.775Z,16.00
2022-09-07T04:59:27.285Z,16.05
2022-09-07T05:01:56.691Z,16.07
2022-09-07T05:04:23.630Z,16.07
2022-09-07T05:06:53.762Z,16.06
2022-09-07T05:09:25.574Z,16.06
2022-09-07T05:11:55.218Z,16.09
2022-09-07T05:14:21.789Z,16.13
2022-09-07T05:16:49.075Z,16.14
2022-09-07T05:19:15.788Z,16.17
2022-09-07T05:21:47.973Z,16.20
2022-09-07T05:25:02.465Z,16.22
2022-09-07T05:27:23.395Z,16.20
2022-09-07T05:30:08.665Z,16.18
2022-09-07T05:32:39.296Z,16.18
2022-09-07T05:35:10.959Z,16.17
2022-09-07T05:37:38.343Z,16.15
2022-09-07T05:40:39.919Z,16.05
2022-09-07T05:43:17.385Z,16.02
2022-09-07T05:46:12.324Z,16.03
2022-09-07T05:48:41.772Z,16.08
2022-09-07T05:51:12.982Z,16.12
2022-09-07T05:53:45.662Z,16.12
2022-09-07T05:56:16.229Z,16.09
2022-09-07T05:58:50.390Z,16.05
2022-09-07T06:01:36.000Z,16.04
2022-09-07T06:04:12.193Z,16.07
2022-09-07T06:06:38.719Z,16.10
2022-09-07T06:09:14.927Z,16.14
2022-09-07T06:11:46.845Z,16.18
2022-09-07T06:14:13.527Z,16.21
2022-09-07T06:16:43.239Z,16.25
2022-09-07T06:19:26.519Z,16.33
2022-09-07T06:21:53.078Z,16.42
2022-09-07T06:24:19.695Z,16.52
2022-09-07T06:26:46.214Z,16.62
2022-09-07T06:29:12.757Z,16.73
2022-09-07T06:34:26.126Z,16.96
2022-09-07T06:36:52.748Z,17.07
2022-09-07T06:39:19.300Z,17.15
2022-09-07T06:42:01.485Z,17.19
2022-09-07T06:44:32.502Z,17.26
2022-09-07T06:49:30.918Z,17.30
2022-09-07T06:51:57.589Z,17.41
2022-09-07T06:57:17.088Z,17.83
2022-09-07T06:59:44.452Z,18.01
2022-09-07T07:02:21.685Z,18.13
2022-09-07T07:04:58.455Z,18.17
2022-09-07T07:07:30.655Z,18.24
2022-09-07T07:10:04.708Z,18.42
2022-09-07T07:22:45.483Z,18.99
2022-09-07T07:25:29.255Z,19.24
2022-09-07T07:34:19.268Z,19.82
2022-09-07T07:36:50.477Z,19.99
2022-09-07T07:42:13.545Z,20.24
2022-09-07T07:47:40.548Z,20.47
2022-09-07T07:55:44.599Z,20.73
2022-09-07T07:58:18.990Z,20.88
2022-09-07T08:00:55.247Z,20.98
2022-09-07T08:03:23.462Z,21.03
2022-09-07T08:05:50.057Z,21.09
2022-09-07T08:08:16.579Z,21.10
2022-09-07T08:10:43.464Z,21.12
2022-09-07T08:13:10.072Z,21.27
2022-09-07T08:15:44.930Z,21.42
2022-09-07T08:18:12.065Z,21.57
2022-09-07T08:20:39.743Z,21.70
2022-09-07T08:23:11.735Z,21.84
2022-09-07T08:25:38.622Z,21.94
2022-09-07T08:28:05.399Z,22.06
2022-09-07T08:30:31.805Z,22.19
2022-09-07T08:33:00.274Z,22.31
2022-09-07T08:35:26.806Z,22.39
2022-09-07T08:37:53.783Z,22.51
2022-09-07T08:40:20.454Z,22.60
2022-09-07T08:42:55.947Z,22.66
2022-09-07T08:45:32.048Z,22.70
2022-09-07T08:47:58.987Z,22.66
2022-09-07T08:50:28.846Z,22.60
2022-09-07T08:53:19.032Z,22.58
2022-09-07T08:56:09.717Z,22.71
2022-09-07T08:58:53.118Z,22.92
2022-09-07T09:01:37.737Z,23.05
2022-09-07T09:04:19.112Z,23.08
2022-09-07T09:06:56.353Z,23.16
2022-09-07T09:09:42.862Z,23.30
2022-09-07T09:12:09.533Z,23.31
2022-09-07T09:14:36.012Z,23.33
2022-09-07T09:17:11.623Z,23.42
2022-09-07T09:19:48.405Z,23.49
2022-09-07T09:22:20.032Z,23.52
2022-09-07T09:25:06.739Z,23.56
2022-09-07T09:27:33.236Z,23.60
2022-09-07T09:30:01.103Z,23.69
2022-09-07T09:32:32.785Z,23.81
2022-09-07T09:35:00.533Z,23.91
2022-09-07T09:37:37.579Z,23.98
2022-09-07T09:40:06.473Z,24.09
2022-09-07T09:42:34.420Z,24.18
2022-09-07T09:45:02.513Z,24.30
2022-09-07T09:47:31.908Z,24.45
2022-09-07T09:50:05.695Z,24.62
2022-09-07T09:52:44.820Z,24.74
2022-09-07T09:55:40.928Z,24.79
2022-09-07T10:01:25.395Z,24.78
2022-09-07T10:06:21.575Z,24.79
2022-09-07T10:08:53.244Z,24.79
2022-09-07T10:14:30.321Z,24.93
2022-09-07T10:16:58.220Z,25.06
2022-09-07T10:19:29.549Z,25.19
2022-09-07T10:21:59.880Z,25.29
2022-09-07T10:24:28.047Z,25.28
2022-09-07T10:26:55.076Z,25.22
2022-09-07T10:29:22.048Z,25.21
2022-09-07T10:31:51.467Z,25.19
2022-09-07T10:34:28.952Z,25.20
2022-09-07T10:36:58.558Z,25.24
2022-09-07T10:39:26.379Z,25.30
2022-09-07T10:42:04.027Z,25.33
2022-09-07T10:44:47.334Z,25.38
2022-09-07T10:47:26.345Z,25.44
2022-09-07T10:52:46.294Z,25.65
2022-09-07T10:55:25.776Z,25.69
2022-09-07T10:57:54.601Z,25.61
2022-09-07T11:00:37.284Z,25.55
2022-09-07T11:06:10.265Z,25.53
2022-09-07T11:09:15.726Z,25.58
2022-09-07T11:14:26.436Z,25.60
2022-09-07T11:16:57.439Z,25.79
2022-09-07T11:19:35.623Z,25.90
2022-09-07T11:22:06.078Z,25.99
2022-09-07T11:24:36.229Z,26.04
2022-09-07T11:27:08.295Z,26.02
2022-09-07T11:29:48.718Z,25.93
2022-09-07T11:32:20.412Z,25.81
2022-09-07T11:35:04.622Z,25.79
2022-09-07T11:37:42.037Z,25.74
2022-09-07T11:40:27.403Z,25.69
2022-09-07T11:43:11.180Z,25.67
2022-09-07T11:45:40.649Z,25.64
2022-09-07T11:48:11.384Z,25.66
2022-09-07T11:50:42.563Z,25.73
2022-09-07T11:53:15.623Z,25.82
2022-09-07T11:55:46.379Z,25.82
2022-09-07T11:58:12.836Z,25.82
2022-09-07T12:00:59.616Z,25.96
2022-09-07T12:03:44.981Z,26.16
2022-09-07T12:06:14.529Z,26.37
2022-09-07T12:09:13.583Z,26.55
2022-09-07T12:11:58.737Z,26.77
2022-09-07T12:14:26.139Z,26.99
2022-09-07T12:17:11.221Z,27.17
2022-09-07T12:19:40.426Z,27.29
2022-09-07T12:22:18.459Z,27.41
2022-09-07T12:24:45.598Z,27.40
2022-09-07T12:27:21.472Z,27.47
2022-09-07T12:30:10.969Z,27.54
2022-09-07T12:32:54.865Z,27.37
2022-09-07T12:35:29.206Z,27.15
2022-09-07T12:37:58.898Z,26.92
2022-09-07T12:40:32.645Z,26.76
2022-09-07T12:43:26.000Z,26.68
2022-09-07T12:45:56.045Z,26.62
2022-09-07T12:48:48.825Z,26.58
2022-09-07T12:54:31.781Z,26.58
2022-09-07T12:59:58.496Z,26.79
2022-09-07T13:02:38.995Z,26.99
2022-09-07T13:05:06.208Z,27.15
2022-09-07T13:07:41.153Z,27.24
2022-09-07T13:10:26.945Z,27.31
2022-09-07T13:12:59.815Z,27.32
2022-09-07T13:15:33.943Z,27.26
2022-09-07T13:18:00.557Z,27.14
2022-09-07T13:20:33.727Z,27.01
2022-09-07T13:23:20.650Z,26.95
2022-09-07T13:25:49.463Z,26.89
2022-09-07T13:28:18.877Z,26.77
2022-09-07T13:30:49.359Z,26.70
2022-09-07T13:33:26.453Z,26.71
2022-09-07T13:36:04.477Z,26.80
2022-09-07T13:38:32.117Z,26.91
2022-09-07T13:41:05.524Z,26.98
2022-09-07T13:43:34.237Z,27.04
2022-09-07T13:46:02.390Z,27.07
2022-09-07T13:48:34.870Z,27.00
2022-09-07T13:51:28.619Z,26.95
2022-09-07T13:53:55.457Z,26.97
2022-09-07T13:56:40.360Z,27.03
2022-09-07T13:59:14.785Z,27.04
2022-09-07T14:01:47.453Z,27.04
2022-09-07T14:04:25.368Z,26.96
2022-09-07T14:07:08.821Z,26.80
2022-09-07T14:09:35.587Z,26.61
2022-09-07T14:12:04.033Z,26.43
2022-09-07T14:14:32.626Z,26.29
2022-09-07T14:16:59.341Z,26.21
2022-09-07T14:19:35.286Z,26.28
2022-09-07T14:22:04.357Z,26.38
2022-09-07T14:24:35.012Z,26.47
2022-09-07T14:27:06.592Z,26.56
2022-09-07T14:29:35.125Z,26.58
2022-09-07T14:32:03.568Z,26.44
2022-09-07T14:34:32.129Z,26.31
2022-09-07T14:37:01.658Z,26.16
2022-09-07T14:39:29.645Z,26.01
2022-09-07T14:41:58.060Z,25.92
2022-09-07T14:44:29.547Z,25.81
2022-09-07T14:46:57.665Z,25.68
2022-09-07T14:49:25.858Z,25.53
2022-09-07T14:51:55.450Z,25.40
2022-09-07T14:54:25.208Z,25.29
2022-09-07T14:57:01.875Z,25.18
2022-09-07T14:59:34.383Z,25.06
2022-09-07T15:02:21.357Z,24.97
2022-09-07T15:04:49.704Z,24.92
2022-09-07T15:07:28.238Z,24.85
2022-09-07T15:09:54.860Z,24.80
2022-09-07T15:12:36.479Z,24.72
2022-09-07T15:15:11.819Z,24.64
2022-09-07T15:17:45.759Z,24.59
2022-09-07T15:20:31.194Z,24.53
2022-09-07T15:22:58.317Z,24.46
2022-09-07T15:25:24.926Z,24.39
2022-09-07T15:27:53.056Z,24.31
2022-09-07T15:30:19.729Z,24.25
2022-09-07T15:32:46.437Z,24.18
2022-09-07T15:35:13.036Z,24.12
2022-09-07T15:40:28.747Z,23.99
2022-09-07T15:42:59.888Z,23.92
2022-09-07T15:45:26.827Z,23.84
2022-09-07T15:47:53.756Z,23.75
2022-09-07T15:50:23.131Z,23.67
2022-09-07T15:52:50.367Z,23.60
2022-09-07T15:55:17.511Z,23.53
2022-09-07T15:58:05.143Z,23.47
2022-09-07T16:00:31.667Z,23.40
2022-09-07T16:03:06.518Z,23.34
2022-09-07T16:05:33.774Z,23.27
2022-09-07T16:10:53.528Z,23.14
2022-09-07T16:13:24.804Z,23.09
2022-09-07T16:15:51.858Z,23.07
2022-09-07T16:18:18.648Z,23.07
2022-09-07T16:20:47.340Z,23.06
2022-09-07T16:23:17.635Z,23.04
2022-09-07T16:26:01.883Z,23.04
2022-09-07T16:28:39.898Z,23.01
2022-09-07T16:31:20.885Z,22.96
2022-09-07T16:33:53.470Z,22.88
2022-09-07T16:36:24.063Z,22.80
2022-09-07T16:38:56.314Z,22.73
2022-09-07T16:41:35.438Z,22.65
2022-09-07T16:44:07.216Z,22.57
2022-09-07T16:47:07.864Z,22.49
2022-09-07T16:49:37.106Z,22.41
2022-09-07T16:52:10.606Z,22.34
2022-09-07T16:54:37.553Z,22.26
2022-09-07T16:57:04.313Z,22.19
2022-09-07T16:59:31.077Z,22.11
2022-09-07T17:01:59.913Z,22.03
2022-09-07T17:04:26.861Z,21.95
2022-09-07T17:06:54.038Z,21.88
2022-09-07T17:09:27.032Z,21.81
2022-09-07T17:11:58.241Z,21.75
2022-09-07T17:14:28.191Z,21.69
2022-09-07T17:16:55.178Z,21.64
2022-09-07T17:19:32.613Z,21.57
2022-09-07T17:22:09.181Z,21.51
2022-09-07T17:24:38.525Z,21.45
2022-09-07T17:27:05.442Z,21.40
2022-09-07T17:29:38.593Z,21.36
2022-09-07T17:36:38.239Z,21.27
2022-09-07T17:44:52.724Z,21.13
2022-09-07T17:47:34.943Z,21.07
2022-09-07T17:50:01.869Z,21.01
2022-09-07T17:52:38.683Z,20.96
2022-09-07T17:55:32.510Z,20.90
2022-09-07T17:58:13.290Z,20.86
2022-09-07T18:01:02.433Z,20.79
2022-09-07T18:03:42.432Z,20.72
2022-09-07T18:06:21.768Z,20.66
2022-09-07T18:09:16.852Z,20.61
2022-09-07T18:12:58.322Z,20.57
2022-09-07T18:19:14.221Z,20.46
2022-09-07T18:23:44.809Z,20.40
2022-09-07T18:33:27.492Z,20.21
2022-09-07T18:36:04.200Z,20.18
2022-09-07T18:38:38.892Z,20.15
2022-09-07T18:48:31.161Z,20.09
2022-09-07T18:51:19.651Z,20.09
2022-09-07T18:54:33.575Z,20.06
2022-09-07T18:57:09.236Z,20.03
2022-09-07T18:59:38.535Z,19.98
2022-09-07T19:02:10.364Z,19.94
2022-09-07T19:07:32.905Z,19.86
2022-09-07T19:10:19.877Z,19.83
2022-09-07T19:13:10.652Z,19.80
2022-09-07T19:15:49.856Z,19.79
2022-09-07T19:18:31.151Z,19.78
2022-09-07T19:21:26.975Z,19.80
2022-09-07T19:24:23.860Z,19.82
2022-09-07T19:30:59.313Z,19.81
2022-09-07T19:34:28.806Z,19.79
2022-09-07T19:41:35.045Z,19.71
2022-09-07T19:51:00.533Z,19.70
2022-09-07T19:54:15.214Z,19.71
2022-09-07T19:56:42.203Z,19.73
2022-09-07T19:59:18.155Z,19.73
2022-09-07T20:01:47.761Z,19.73
2022-09-07T20:04:39.711Z,19.72
2022-09-07T20:07:23.827Z,19.70
2022-09-07T20:09:55.311Z,19.66
2022-09-07T20:12:28.887Z,19.62
2022-09-07T20:15:15.610Z,19.58
2022-09-07T20:17:42.392Z,19.53
2022-09-07T20:20:16.365Z,19.50
2022-09-07T20:22:55.572Z,19.47
2022-09-07T20:25:24.750Z,19.42
2022-09-07T20:27:53.853Z,19.37
2022-09-07T20:30:23.665Z,19.32
2022-09-07T20:33:00.676Z,19.29
2022-09-07T20:35:35.420Z,19.25
2022-09-07T20:38:09.685Z,19.23
2022-09-07T20:40:36.787Z,19.24
2022-09-07T20:43:13.710Z,19.22
2022-09-07T20:45:49.159Z,19.21
2022-09-07T20:48:20.487Z,19.19
2022-09-07T20:50:57.128Z,19.19
2022-09-07T20:53:24.893Z,19.17
2022-09-07T20:56:06.239Z,19.15
2022-09-07T20:58:35.136Z,19.13
2022-09-07T21:01:13.837Z,19.11
2022-09-07T21:07:33.038Z,19.05
2022-09-07T21:10:28.326Z,19.01
2022-09-07T21:13:09.604Z,18.98
2022-09-07T21:15:37.676Z,18.95
2022-09-07T21:18:04.925Z,18.91
2022-09-07T21:20:31.653Z,18.86
2022-09-07T21:22:58.193Z,18.83
2022-09-07T21:25:38.220Z,18.80
2022-09-07T21:28:09.383Z,18.79
2022-09-07T21:30:38.483Z,18.79
2022-09-07T21:33:08.531Z,18.78
2022-09-07T21:35:35.286Z,18.75
2022-09-07T21:38:10.737Z,18.71
2022-09-07T21:40:44.530Z,18.69
2022-09-07T21:43:11.784Z,18.66
2022-09-07T21:45:38.489Z,18.64
2022-09-07T21:48:21.719Z,18.62
2022-09-07T21:50:57.423Z,18.60
2022-09-07T21:53:24.369Z,18.59
2022-09-07T21:56:04.729Z,18.57
2022-09-07T21:58:34.065Z,18.55
2022-09-07T22:01:08.727Z,18.52
2022-09-07T22:03:35.438Z,18.50
2022-09-07T22:06:02.231Z,18.47
2022-09-07T22:08:29.071Z,18.45
2022-09-07T22:11:02.375Z,18.43
2022-09-07T22:13:36.498Z,18.40
2022-09-07T22:16:18.532Z,18.38
2022-09-07T22:18:45.742Z,18.36
2022-09-07T22:21:16.537Z,18.32
2022-09-07T22:23:44.949Z,18.29
2022-09-07T22:26:16.949Z,18.27
2022-09-07T22:28:47.594Z,18.26
2022-09-07T22:31:18.601Z,18.25
2022-09-07T22:33:49.047Z,18.24
2022-09-07T22:36:18.829Z,18.23
2022-09-07T22:38:46.842Z,18.21
2022-09-07T22:41:18.096Z,18.18
2022-09-07T22:43:44.730Z,18.14
2022-09-07T22:46:15.917Z,18.13
2022-09-07T22:49:00.088Z,18.10
2022-09-07T22:51:26.617Z,18.06
2022-09-07T22:53:53.885Z,18.03
2022-09-07T22:56:22.290Z,17.99
2022-09-07T22:58:50.712Z,17.97
2022-09-07T23:01:18.107Z,17.95
2022-09-07T23:03:50.140Z,17.92
2022-09-07T23:06:53.013Z,17.90
2022-09-07T23:09:32.189Z,17.90
2022-09-07T23:12:03.432Z,17.89
2022-09-07T23:14:30.381Z,17.88
2022-09-07T23:16:57.223Z,17.87
2022-09-07T23:19:35.939Z,17.86
2022-09-07T23:22:02.676Z,17.84
2022-09-07T23:24:29.228Z,17.81
2022-09-07T23:27:04.215Z,17.80
2022-09-07T23:29:30.777Z,17.76
2022-09-07T23:32:02.729Z,17.76
2022-09-07T23:34:29.367Z,17.76
2022-09-07T23:36:55.933Z,17.74
2022-09-07T23:39:22.581Z,17.73
2022-09-07T23:41:54.210Z,17.71
2022-09-07T23:44:20.753Z,17.67
2022-09-07T23:46:47.564Z,17.64
2022-09-07T23:49:14.251Z,17.63
2022-09-07T23:51:40.796Z,17.60
2022-09-07T23:54:12.849Z,17.58
2022-09-07T23:56:39.570Z,17.57
2022-09-07T23:59:06.071Z,17.56
